createdAt,value
2018-08-23T00:00:03.959Z,10.23
2018-08-23T00:02:39.399Z,9.77
2018-08-23T00:05:15.793Z,10.63
2018-08-23T00:08:08.879Z,15.43
2018-08-23T00:10:44.324Z,11.40
2018-08-23T00:13:19.988Z,9.47
2018-08-23T00:15:55.338Z,12.53
2018-08-23T00:18:30.687Z,10.30
2018-08-23T00:21:07.669Z,17.90
2018-08-23T00:23:45.446Z,12.93
2018-08-23T00:26:20.994Z,11.80
2018-08-23T00:28:56.567Z,10.30
2018-08-23T00:31:36.106Z,12.40
2018-08-23T00:34:11.813Z,12.80
2018-08-23T00:36:47.277Z,11.87
2018-08-23T00:39:22.723Z,14.20
2018-08-23T00:42:04.621Z,15.47
2018-08-23T00:44:56.940Z,14.60
2018-08-23T00:47:33.747Z,10.33
2018-08-23T00:50:09.093Z,13.63
2018-08-23T00:52:45.857Z,16.77
2018-08-23T00:55:31.557Z,18.80
2018-08-23T00:58:06.989Z,14.40
2018-08-23T01:00:48.318Z,13.20
2018-08-23T01:03:26.857Z,12.28
2018-08-23T01:06:02.476Z,13.77
2018-08-23T01:08:37.986Z,15.73
2018-08-23T01:11:13.199Z,12.33
2018-08-23T01:13:48.777Z,10.93
2018-08-23T01:16:24.269Z,12.83
2018-08-23T01:19:05.501Z,17.10
2018-08-23T01:21:46.665Z,15.33
2018-08-23T01:24:22.342Z,14.05
2018-08-23T01:26:57.749Z,16.13
2018-08-23T01:29:33.161Z,15.60
2018-08-23T01:32:13.865Z,14.93
2018-08-23T01:34:49.438Z,18.57
2018-08-23T01:37:36.136Z,18.73
2018-08-23T01:40:12.509Z,24.52
2018-08-23T01:42:47.905Z,17.30
2018-08-23T01:45:23.507Z,20.00
2018-08-23T01:47:58.982Z,20.10
2018-08-23T01:50:34.399Z,21.65
2018-08-23T01:53:09.632Z,22.35
2018-08-23T01:55:45.030Z,22.13
2018-08-23T01:58:20.465Z,21.33
2018-08-23T02:01:28.424Z,24.10
2018-08-23T02:04:06.321Z,25.55
2018-08-23T02:06:42.189Z,24.92
2018-08-23T02:09:17.421Z,26.68
2018-08-23T02:11:52.877Z,24.50
2018-08-23T02:14:30.266Z,27.32
2018-08-23T02:17:05.919Z,28.52
2018-08-23T02:19:50.913Z,27.30
2018-08-23T02:22:26.631Z,28.42
2018-08-23T02:25:01.902Z,28.77
2018-08-23T02:28:04.840Z,27.65
2018-08-23T02:30:53.090Z,30.08
2018-08-23T02:33:28.765Z,34.33
2018-08-23T02:36:22.337Z,29.32
2018-08-23T02:39:01.033Z,30.52
2018-08-23T02:41:36.265Z,28.62
2018-08-23T02:44:11.878Z,29.18
2018-08-23T02:46:47.417Z,29.00
2018-08-23T02:49:23.136Z,32.30
2018-08-23T02:51:58.657Z,33.40
2018-08-23T02:54:34.350Z,30.17
2018-08-23T02:57:11.615Z,30.05
2018-08-23T02:59:47.069Z,32.83
2018-08-23T03:02:23.337Z,28.40
2018-08-23T03:04:59.017Z,36.28
2018-08-23T03:07:34.461Z,29.12
2018-08-23T03:10:10.317Z,31.87
2018-08-23T03:12:45.555Z,34.33
2018-08-23T03:15:25.494Z,31.30
2018-08-23T03:18:01.318Z,30.10
2018-08-23T03:20:36.699Z,30.52
2018-08-23T03:23:12.161Z,31.70
2018-08-23T03:25:47.684Z,34.23
2018-08-23T03:28:22.993Z,33.42
2018-08-23T03:31:04.015Z,37.63
2018-08-23T03:33:39.422Z,31.90
2018-08-23T03:36:14.988Z,32.10
2018-08-23T03:38:51.076Z,33.92
2018-08-23T03:41:26.794Z,31.70
2018-08-23T03:44:02.060Z,30.52
2018-08-23T03:47:08.709Z,33.98
2018-08-23T03:49:46.105Z,35.17
2018-08-23T03:52:22.757Z,34.13
2018-08-23T03:55:00.577Z,31.97
2018-08-23T03:57:41.136Z,32.40
2018-08-23T04:00:16.699Z,33.30
2018-08-23T04:02:52.059Z,34.60
2018-08-23T04:05:27.498Z,33.08
2018-08-23T04:08:03.068Z,32.80
2018-08-23T04:10:38.781Z,36.80
2018-08-23T04:13:14.265Z,35.95
2018-08-23T04:15:49.669Z,35.75
2018-08-23T04:18:25.201Z,34.23
2018-08-23T04:21:01.069Z,37.20
2018-08-23T04:23:36.396Z,35.43
2018-08-23T04:26:11.857Z,35.85
2018-08-23T04:28:47.341Z,34.98
2018-08-23T04:31:22.961Z,35.35
2018-08-23T04:33:58.397Z,34.30
2018-08-23T04:36:34.540Z,37.80
2018-08-23T04:39:11.556Z,38.42
2018-08-23T04:41:46.960Z,37.35
2018-08-23T04:44:22.369Z,36.45
2018-08-23T04:46:57.981Z,38.15
2018-08-23T04:49:34.001Z,37.00
2018-08-23T04:52:09.486Z,35.30
2018-08-23T04:54:44.780Z,33.05
2018-08-23T04:57:20.401Z,31.25
2018-08-23T04:59:55.845Z,33.88
2018-08-23T05:02:31.418Z,31.52
2018-08-23T05:05:06.957Z,33.05
2018-08-23T05:07:42.859Z,34.33
2018-08-23T05:10:18.343Z,33.23
2018-08-23T05:12:53.764Z,34.30
2018-08-23T05:15:29.032Z,33.50
2018-08-23T05:18:04.448Z,30.00
2018-08-23T05:20:39.848Z,32.60
2018-08-23T05:23:15.529Z,31.87
2018-08-23T05:25:52.512Z,31.47
2018-08-23T05:28:27.920Z,34.13
2018-08-23T05:31:03.341Z,30.40
2018-08-23T05:33:38.865Z,31.80
2018-08-23T05:36:17.165Z,29.83
2018-08-23T05:38:52.626Z,30.17
2018-08-23T05:41:27.968Z,31.47
2018-08-23T05:44:13.532Z,30.07
2018-08-23T05:46:51.521Z,29.40
2018-08-23T05:49:27.411Z,29.67
2018-08-23T05:52:02.712Z,32.83
2018-08-23T05:54:38.165Z,30.80
2018-08-23T05:57:13.678Z,33.80
2018-08-23T05:59:49.393Z,38.70
2018-08-23T06:02:24.722Z,39.77
2018-08-23T06:05:00.282Z,40.83
2018-08-23T06:07:35.830Z,40.00
2018-08-23T06:10:11.261Z,42.73
2018-08-23T06:12:46.557Z,43.27
2018-08-23T06:15:22.471Z,42.80
2018-08-23T06:17:57.769Z,46.03
2018-08-23T06:20:33.369Z,46.90
2018-08-23T06:23:08.860Z,47.03
2018-08-23T06:25:45.381Z,46.77
2018-08-23T06:28:24.117Z,44.13
2018-08-23T06:31:00.650Z,45.47
2018-08-23T06:40:36.668Z,41.47
2018-08-23T06:43:12.230Z,41.10
2018-08-23T06:45:47.776Z,42.00
2018-08-23T06:48:23.432Z,41.07
2018-08-23T06:50:59.970Z,39.30
2018-08-23T06:53:52.750Z,39.33
2018-08-23T06:56:28.057Z,38.27
2018-08-23T06:59:03.598Z,38.57
2018-08-23T07:01:44.140Z,39.90
2018-08-23T07:04:19.770Z,38.63
2018-08-23T07:06:55.290Z,35.30
2018-08-23T07:09:37.981Z,35.63
2018-08-23T07:12:18.459Z,35.90
2018-08-23T07:14:53.822Z,35.23
2018-08-23T07:17:30.009Z,34.53
2018-08-23T07:20:12.085Z,33.27
2018-08-23T07:22:47.389Z,31.57
2018-08-23T07:25:23.422Z,32.80
2018-08-23T07:27:58.666Z,31.23
2018-08-23T07:30:34.402Z,32.17
2018-08-23T07:33:09.664Z,31.00
2018-08-23T07:35:45.855Z,29.50
2018-08-23T07:38:21.236Z,31.10
2018-08-23T07:40:56.660Z,32.30
2018-08-23T07:43:32.106Z,24.20
2018-08-23T07:46:07.948Z,30.40
2018-08-23T07:48:43.251Z,27.27
2018-08-23T07:51:22.599Z,25.60
2018-08-23T07:54:02.020Z,26.57
2018-08-23T07:56:37.438Z,25.90
2018-08-23T07:59:13.506Z,26.60
2018-08-23T08:01:49.037Z,26.37
2018-08-23T08:04:24.521Z,28.70
2018-08-23T08:07:00.342Z,25.40
2018-08-23T08:09:35.722Z,24.57
2018-08-23T08:12:16.605Z,25.90
2018-08-23T08:14:51.929Z,28.60
2018-08-23T08:17:32.566Z,28.50
2018-08-23T08:20:09.997Z,26.67
2018-08-23T08:22:45.601Z,31.87
2018-08-23T08:25:21.072Z,20.47
2018-08-23T08:27:56.496Z,27.50
2018-08-23T08:30:43.176Z,27.97
2018-08-23T08:33:22.023Z,29.20
2018-08-23T08:36:01.461Z,29.90
2018-08-23T08:38:37.385Z,32.80
2018-08-23T08:41:13.042Z,31.73
2018-08-23T08:43:48.343Z,30.93
2018-08-23T08:46:23.759Z,28.40
2018-08-23T08:48:59.033Z,32.13
2018-08-23T08:51:34.651Z,31.23
2018-08-23T08:54:10.169Z,32.77
2018-08-23T08:56:46.753Z,30.23
2018-08-23T08:59:22.427Z,26.27
2018-08-23T09:01:58.376Z,28.47
2018-08-23T09:04:36.148Z,28.20
2018-08-23T09:07:11.720Z,28.27
2018-08-23T09:09:47.203Z,26.57
2018-08-23T09:12:22.713Z,24.87
2018-08-23T09:14:58.162Z,28.37
2018-08-23T09:17:43.553Z,28.20
2018-08-23T09:20:19.779Z,28.30
2018-08-23T09:22:56.173Z,27.47
2018-08-23T09:25:36.854Z,27.77
2018-08-23T09:28:12.510Z,25.77
2018-08-23T09:30:47.981Z,24.13
2018-08-23T09:33:24.512Z,24.47
2018-08-23T09:35:59.973Z,23.50
2018-08-23T09:38:35.501Z,25.40
2018-08-23T09:41:10.885Z,26.00
2018-08-23T09:43:46.391Z,25.13
2018-08-23T09:46:21.869Z,24.80
2018-08-23T09:48:57.382Z,23.40
2018-08-23T09:51:32.924Z,22.60
2018-08-23T09:54:08.716Z,24.80
2018-08-23T09:56:44.213Z,25.20
2018-08-23T09:59:19.677Z,24.40
2018-08-23T10:02:00.451Z,24.47
2018-08-23T10:04:41.355Z,24.50
2018-08-23T10:07:18.477Z,26.50
2018-08-23T10:09:59.606Z,27.93
2018-08-23T10:12:40.270Z,26.63
2018-08-23T10:15:21.421Z,25.47
2018-08-23T10:18:02.064Z,26.70
2018-08-23T10:20:47.294Z,22.97
2018-08-23T10:23:24.870Z,25.03
2018-08-23T10:26:04.437Z,24.60
2018-08-23T10:28:50.505Z,26.30
2018-08-23T10:31:26.243Z,24.57
2018-08-23T10:34:01.829Z,24.33
2018-08-23T10:36:37.124Z,25.63
2018-08-23T10:39:13.917Z,22.73
2018-08-23T10:41:49.232Z,24.83
2018-08-23T10:44:24.816Z,24.93
2018-08-23T10:47:00.329Z,24.50
2018-08-23T10:49:36.009Z,25.53
2018-08-23T10:52:11.405Z,23.17
2018-08-23T10:54:46.917Z,23.23
2018-08-23T10:57:22.417Z,23.50
2018-08-23T10:59:58.089Z,21.30
2018-08-23T11:02:33.425Z,21.10
2018-08-23T11:05:09.085Z,24.30
2018-08-23T11:07:50.165Z,23.43
2018-08-23T11:10:31.157Z,22.90
2018-08-23T11:13:11.909Z,23.83
2018-08-23T11:15:47.560Z,25.47
2018-08-23T11:19:25.928Z,26.80
2018-08-23T11:22:01.633Z,27.10
2018-08-23T11:24:37.018Z,25.10
2018-08-23T11:27:12.446Z,23.17
2018-08-23T11:29:47.781Z,22.80
2018-08-23T11:32:23.417Z,21.47
2018-08-23T11:34:58.716Z,20.50
2018-08-23T11:37:34.109Z,22.10
2018-08-23T11:40:09.557Z,21.40
2018-08-23T11:42:45.147Z,23.10
2018-08-23T11:45:20.460Z,24.13
2018-08-23T11:47:56.299Z,22.10
2018-08-23T11:50:31.742Z,24.70
2018-08-23T11:53:07.431Z,25.17
2018-08-23T11:55:42.789Z,22.90
2018-08-23T11:58:18.273Z,21.80
2018-08-23T12:00:57.184Z,20.60
2018-08-23T12:03:32.845Z,21.47
2018-08-23T12:06:09.500Z,21.50
2018-08-23T12:08:45.584Z,26.10
2018-08-23T12:11:21.105Z,24.00
2018-08-23T12:13:56.674Z,23.63
2018-08-23T12:16:31.976Z,25.40
2018-08-23T12:19:07.433Z,24.40
2018-08-23T12:21:42.773Z,23.80
2018-08-23T12:24:18.248Z,23.37
2018-08-23T12:26:53.541Z,26.07
2018-08-23T12:29:28.981Z,24.13
2018-08-23T12:32:04.540Z,26.90
2018-08-23T12:34:40.274Z,24.87
2018-08-23T12:37:21.073Z,22.90
2018-08-23T12:40:02.198Z,26.27
2018-08-23T12:42:45.272Z,24.70
2018-08-23T12:45:20.757Z,25.20
2018-08-23T12:47:56.412Z,25.33
2018-08-23T12:50:31.874Z,21.53
2018-08-23T12:53:07.534Z,26.13
2018-08-23T12:55:42.879Z,21.23
2018-08-23T12:58:18.400Z,18.77
2018-08-23T13:00:53.887Z,18.90
2018-08-23T13:03:29.408Z,19.43
2018-08-23T13:06:04.873Z,18.90
2018-08-23T13:08:40.796Z,19.20
2018-08-23T13:11:16.106Z,18.57
2018-08-23T13:13:51.710Z,16.73
2018-08-23T13:16:27.099Z,16.30
2018-08-23T13:19:02.582Z,16.70
2018-08-23T13:21:38.004Z,17.50
2018-08-23T13:24:13.629Z,17.27
2018-08-23T13:26:49.052Z,17.37
2018-08-23T13:29:25.061Z,16.97
2018-08-23T13:32:00.253Z,15.83
2018-08-23T13:34:35.726Z,17.63
2018-08-23T13:37:11.058Z,14.87
2018-08-23T13:39:46.782Z,15.90
2018-08-23T13:42:22.281Z,15.60
2018-08-23T13:44:58.040Z,16.80
2018-08-23T13:47:33.485Z,16.57
2018-08-23T13:50:09.253Z,15.20
2018-08-23T13:52:44.489Z,15.43
2018-08-23T13:55:19.933Z,13.50
2018-08-23T13:57:55.152Z,16.07
2018-08-23T14:00:36.078Z,14.70
2018-08-23T14:03:12.088Z,15.77
2018-08-23T14:05:47.638Z,13.87
2018-08-23T14:08:23.448Z,15.13
2018-08-23T14:10:58.976Z,13.50
2018-08-23T14:13:34.306Z,15.33
2018-08-23T14:16:09.857Z,14.50
2018-08-23T14:18:45.273Z,15.20
2018-08-23T14:21:20.944Z,14.67
2018-08-23T14:23:56.193Z,16.50
2018-08-23T14:26:32.053Z,16.47
2018-08-23T14:29:07.333Z,18.13
2018-08-23T14:31:42.951Z,17.97
2018-08-23T14:34:18.268Z,18.77
2018-08-23T14:36:53.931Z,21.27
2018-08-23T14:39:29.153Z,20.13
2018-08-23T14:42:04.705Z,23.33
2018-08-23T14:44:39.912Z,21.50
2018-08-23T14:47:20.846Z,21.33
2018-08-23T14:49:56.129Z,22.23
2018-08-23T14:52:31.709Z,23.07
2018-08-23T14:55:07.239Z,22.00
2018-08-23T14:57:42.697Z,20.50
2018-08-23T15:00:18.045Z,20.37
2018-08-23T15:02:53.493Z,18.27
2018-08-23T15:05:28.748Z,19.33
2018-08-23T15:08:04.598Z,20.00
2018-08-23T15:10:39.797Z,18.43
2018-08-23T15:13:15.493Z,18.80
2018-08-23T15:15:52.061Z,17.50
2018-08-23T15:18:27.801Z,15.90
2018-08-23T15:21:03.189Z,14.80
2018-08-23T15:23:38.892Z,15.30
2018-08-23T15:26:14.314Z,14.13
2018-08-23T15:28:49.677Z,15.17
2018-08-23T15:31:24.879Z,12.30
2018-08-23T15:34:00.369Z,12.73
2018-08-23T15:36:35.621Z,13.53
2018-08-23T15:39:16.726Z,13.50
2018-08-23T15:41:52.235Z,12.87
2018-08-23T15:44:27.785Z,12.73
2018-08-23T15:47:03.456Z,11.50
2018-08-23T15:49:39.084Z,12.03
2018-08-23T15:52:14.453Z,11.60
2018-08-23T15:54:49.909Z,14.10
2018-08-23T15:57:25.321Z,12.90
2018-08-23T16:00:01.065Z,14.40
2018-08-23T16:02:36.610Z,14.67
2018-08-23T16:05:12.177Z,24.07
2018-08-23T16:07:47.742Z,30.57
2018-08-23T16:10:23.463Z,18.37
2018-08-23T16:12:58.787Z,18.77
2018-08-23T16:15:34.560Z,55.50
2018-08-23T16:18:15.312Z,20.33
2018-08-23T16:20:55.683Z,19.70
2018-08-23T16:23:30.959Z,21.67
2018-08-23T16:26:06.488Z,23.20
2018-08-23T16:28:48.360Z,21.77
2018-08-23T16:31:24.029Z,19.20
2018-08-23T16:33:59.557Z,17.57
2018-08-23T16:36:34.990Z,18.70
2018-08-23T16:39:10.449Z,18.50
2018-08-23T16:41:46.009Z,19.03
2018-08-23T16:44:21.348Z,18.63
2018-08-23T16:46:57.109Z,18.47
2018-08-23T16:49:32.525Z,17.00
2018-08-23T16:52:08.200Z,18.53
2018-08-23T16:54:43.753Z,20.03
2018-08-23T16:57:19.425Z,17.07
2018-08-23T16:59:54.937Z,17.63
2018-08-23T17:02:30.606Z,18.50
2018-08-23T17:05:05.946Z,17.67
2018-08-23T17:07:41.813Z,20.10
2018-08-23T17:10:17.211Z,16.80
2018-08-23T17:12:52.784Z,16.60
2018-08-23T17:15:32.174Z,17.23
2018-08-23T17:18:07.939Z,18.33
2018-08-23T17:20:43.204Z,18.63
2018-08-23T17:23:18.839Z,17.20
2018-08-23T17:25:54.323Z,18.00
2018-08-23T17:28:29.865Z,18.90
2018-08-23T17:31:05.212Z,18.10
2018-08-23T17:33:40.764Z,21.23
2018-08-23T17:36:16.093Z,20.20
2018-08-23T17:38:51.557Z,19.43
2018-08-23T17:41:26.897Z,18.50
2018-08-23T17:44:02.558Z,19.70
2018-08-23T17:46:37.825Z,20.00
2018-08-23T17:49:13.203Z,17.53
2018-08-23T17:51:48.546Z,20.43
2018-08-23T17:54:24.123Z,18.27
2018-08-23T17:56:59.354Z,18.40
2018-08-23T17:59:35.071Z,18.70
2018-08-23T18:02:10.492Z,19.40
2018-08-23T18:04:46.120Z,18.53
2018-08-23T18:07:21.455Z,18.17
2018-08-23T18:09:57.149Z,18.57
2018-08-23T18:12:32.396Z,18.33
2018-08-23T18:15:09.841Z,17.80
2018-08-23T18:17:45.294Z,18.63
2018-08-23T18:20:20.866Z,19.37
2018-08-23T18:22:56.297Z,17.13
2018-08-23T18:25:32.184Z,16.77
2018-08-23T18:28:07.451Z,19.70
2018-08-23T18:30:43.017Z,17.37
2018-08-23T18:33:18.390Z,17.30
2018-08-23T18:35:53.905Z,16.70
2018-08-23T18:38:29.566Z,17.87
2018-08-23T18:41:05.132Z,18.57
2018-08-23T18:43:40.600Z,15.70
2018-08-23T18:46:16.307Z,17.70
2018-08-23T18:48:51.730Z,16.97
2018-08-23T18:51:28.845Z,16.40
2018-08-23T18:54:04.446Z,15.07
2018-08-23T18:56:40.102Z,17.40
2018-08-23T18:59:15.456Z,17.47
2018-08-23T19:01:51.227Z,18.17
2018-08-23T19:04:26.756Z,19.90
2018-08-23T19:07:02.325Z,18.67
2018-08-23T19:09:38.177Z,20.27
2018-08-23T19:12:13.625Z,19.63
2018-08-23T19:14:48.832Z,19.10
2018-08-23T19:17:29.837Z,14.90
2018-08-23T19:20:05.370Z,16.30
2018-08-23T19:22:40.924Z,17.57
2018-08-23T19:25:16.468Z,20.00
2018-08-23T19:27:51.825Z,17.73
2018-08-23T19:30:27.341Z,16.73
2018-08-23T19:33:03.401Z,18.53
2018-08-23T19:35:38.228Z,18.60
2018-08-23T19:38:13.941Z,20.07
2018-08-23T19:40:49.359Z,23.87
2018-08-23T19:43:24.969Z,23.93
2018-08-23T19:46:05.634Z,24.43
2018-08-23T19:48:41.701Z,26.00
2018-08-23T19:51:17.109Z,21.80
2018-08-23T19:53:52.678Z,21.93
2018-08-23T19:56:28.094Z,19.93
2018-08-23T19:59:03.722Z,20.30
2018-08-23T20:01:38.890Z,19.50
2018-08-23T20:04:14.530Z,20.57
2018-08-23T20:06:50.069Z,20.53
2018-08-23T20:09:26.016Z,21.60
2018-08-23T20:12:01.485Z,19.63
2018-08-23T20:14:37.109Z,22.13
2018-08-23T20:17:12.566Z,22.70
2018-08-23T20:19:48.114Z,22.20
2018-08-23T20:22:23.887Z,21.37
2018-08-23T20:24:59.570Z,22.17
2018-08-23T20:27:34.789Z,20.10
2018-08-23T20:30:10.291Z,23.67
2018-08-23T20:32:45.642Z,22.00
2018-08-23T20:35:21.295Z,20.17
2018-08-23T20:37:56.792Z,23.77
2018-08-23T20:40:32.376Z,24.30
2018-08-23T20:43:07.586Z,24.83
2018-08-23T20:45:43.276Z,23.20
2018-08-23T20:48:18.688Z,27.03
2018-08-23T20:50:54.234Z,24.97
2018-08-23T20:53:29.677Z,20.97
2018-08-23T20:56:05.558Z,24.27
2018-08-23T20:58:40.886Z,23.73
2018-08-23T21:01:16.454Z,21.80
2018-08-23T21:03:52.076Z,21.67
2018-08-23T21:06:27.605Z,20.77
2018-08-23T21:09:03.435Z,21.80
2018-08-23T21:11:39.258Z,22.20
2018-08-23T21:14:14.705Z,23.67
2018-08-23T21:16:50.291Z,20.60
2018-08-23T21:19:25.759Z,22.10
2018-08-23T21:22:01.345Z,20.73
2018-08-23T21:24:36.594Z,21.47
2018-08-23T21:27:12.025Z,19.70
2018-08-23T21:29:47.403Z,21.17
2018-08-23T21:32:23.023Z,19.27
2018-08-23T21:34:58.485Z,22.40
2018-08-23T21:37:34.120Z,20.53
2018-08-23T21:40:09.516Z,19.60
2018-08-23T21:42:45.114Z,20.40
2018-08-23T21:45:20.440Z,19.40
2018-08-23T21:47:56.093Z,17.50
2018-08-23T21:50:31.469Z,18.70
2018-08-23T21:53:07.001Z,17.60
2018-08-23T21:55:42.339Z,17.83
2018-08-23T21:58:17.884Z,18.77
2018-08-23T22:00:54.344Z,22.37
2018-08-23T22:03:29.800Z,17.90
2018-08-23T22:06:05.492Z,17.83
2018-08-23T22:08:41.204Z,18.00
2018-08-23T22:11:16.501Z,15.80
2018-08-23T22:13:51.984Z,16.67
2018-08-23T22:16:27.512Z,15.60
2018-08-23T22:19:03.470Z,16.27
2018-08-23T22:21:38.852Z,17.80
2018-08-23T22:24:14.589Z,17.03
2018-08-23T22:26:49.940Z,15.63
2018-08-23T22:29:25.490Z,14.47
2018-08-23T22:32:00.797Z,17.80
2018-08-23T22:34:36.270Z,14.50
2018-08-23T22:37:11.784Z,15.70
2018-08-23T22:39:47.233Z,14.70
2018-08-23T22:42:22.405Z,16.03
2018-08-23T22:44:57.956Z,17.33
2018-08-23T22:47:33.469Z,19.20
2018-08-23T22:50:09.657Z,17.53
2018-08-23T22:52:45.013Z,18.07
2018-08-23T22:55:20.653Z,17.90
2018-08-23T22:57:55.873Z,16.87
2018-08-23T23:00:36.764Z,17.50
2018-08-23T23:03:17.456Z,16.27
2018-08-23T23:05:53.186Z,16.83
2018-08-23T23:08:28.698Z,17.20
2018-08-23T23:11:04.281Z,18.63
2018-08-23T23:13:39.649Z,20.57
2018-08-23T23:16:15.164Z,18.30
2018-08-23T23:18:50.449Z,19.50
2018-08-23T23:21:25.996Z,19.93
2018-08-23T23:24:01.796Z,18.00
2018-08-23T23:26:37.357Z,28.03
2018-08-23T23:29:12.870Z,30.73
2018-08-23T23:31:48.352Z,18.60
2018-08-23T23:34:23.785Z,22.00
2018-08-23T23:36:59.241Z,18.33
2018-08-23T23:39:34.729Z,19.20
2018-08-23T23:42:10.337Z,21.37
2018-08-23T23:44:45.740Z,21.60
2018-08-23T23:47:21.228Z,19.03
2018-08-23T23:49:56.961Z,21.07
2018-08-23T23:52:32.325Z,23.70
2018-08-23T23:55:07.841Z,20.93
2018-08-23T23:57:44.326Z,22.90
